createdAt,value
2023-03-23T15:58:17.633Z,17.08
2023-03-23T16:00:49.343Z,17.02
2023-03-23T16:03:31.164Z,17.00
2023-03-23T16:06:03.138Z,16.94
2023-03-23T16:08:40.574Z,16.90
2023-03-23T16:11:16.270Z,16.85
2023-03-23T16:13:50.054Z,16.86
2023-03-23T16:16:48.860Z,16.85
2023-03-23T16:19:24.802Z,16.79
2023-03-23T16:22:03.483Z,16.74
2023-03-23T16:24:40.067Z,16.70
2023-03-23T16:27:14.265Z,16.68
2023-03-23T16:30:02.154Z,16.63
2023-03-23T16:35:19.810Z,16.54
2023-03-23T16:38:08.256Z,16.51
2023-03-23T16:40:55.068Z,16.47
2023-03-23T16:43:34.889Z,16.46
2023-03-23T16:46:15.208Z,16.42
2023-03-23T16:48:49.514Z,16.38
2023-03-23T16:51:29.014Z,16.36
2023-03-23T16:54:07.482Z,16.34
2023-03-23T16:56:48.005Z,16.29
2023-03-23T16:59:26.841Z,16.25
2023-03-23T17:02:27.900Z,16.22
2023-03-23T17:05:24.398Z,16.17
2023-03-23T17:08:12.924Z,16.13
2023-03-23T17:10:47.879Z,16.10
2023-03-23T17:13:23.601Z,16.08
2023-03-23T17:16:04.379Z,16.08
2023-03-23T17:18:33.120Z,16.09
2023-03-23T17:21:02.134Z,16.10
2023-03-23T17:23:39.929Z,16.10
2023-03-23T17:26:10.471Z,16.10
2023-03-23T17:28:42.074Z,16.08
2023-03-23T17:31:16.509Z,15.98
2023-03-23T17:33:59.310Z,15.96
2023-03-23T17:36:28.504Z,15.97
2023-03-23T17:39:06.720Z,15.97
2023-03-23T17:41:38.104Z,15.92
2023-03-23T17:44:11.824Z,15.90
2023-03-23T17:46:42.258Z,15.86
2023-03-23T17:49:14.564Z,15.83
2023-03-23T17:51:50.280Z,15.80
2023-03-23T17:54:25.229Z,15.79
2023-03-23T17:56:54.397Z,15.78
2023-03-23T17:59:28.833Z,15.78
2023-03-23T18:02:02.151Z,15.74
2023-03-23T18:04:40.258Z,15.71
2023-03-23T18:07:17.833Z,15.69
2023-03-23T18:10:11.237Z,15.67
2023-03-23T18:12:48.476Z,15.65
2023-03-23T18:15:18.694Z,15.65
2023-03-23T18:18:05.948Z,15.67
2023-03-23T18:20:40.510Z,15.65
2023-03-23T18:23:12.341Z,15.63
2023-03-23T18:25:48.471Z,15.60
2023-03-23T18:28:37.981Z,15.57
2023-03-23T18:31:19.755Z,15.56
2023-03-23T18:34:01.688Z,15.54
2023-03-23T18:36:34.769Z,15.53
2023-03-23T18:39:12.439Z,15.52
2023-03-23T18:41:55.892Z,15.52
2023-03-23T18:44:27.807Z,15.51
2023-03-23T18:47:00.140Z,15.50
2023-03-23T18:49:37.031Z,15.50
2023-03-23T18:52:17.001Z,15.51
2023-03-23T18:55:12.933Z,15.41
2023-03-23T18:57:50.339Z,15.42
2023-03-23T19:00:22.385Z,15.45
2023-03-23T19:03:00.962Z,15.46
2023-03-23T19:05:32.268Z,15.48
2023-03-23T19:08:06.101Z,15.47
2023-03-23T19:10:43.424Z,15.45
2023-03-23T19:13:16.708Z,15.42
2023-03-23T19:15:49.224Z,15.39
2023-03-23T19:18:19.865Z,15.39
2023-03-23T19:21:12.390Z,15.38
2023-03-23T19:23:47.053Z,15.37
2023-03-23T19:26:24.235Z,15.38
2023-03-23T19:31:36.396Z,15.33
2023-03-23T19:34:10.369Z,15.32
2023-03-23T19:36:39.508Z,15.32
2023-03-23T19:39:08.302Z,15.22
2023-03-23T19:41:39.145Z,15.22
2023-03-23T19:44:08.092Z,15.24
2023-03-23T19:46:41.051Z,15.25
2023-03-23T19:49:11.755Z,15.26
2023-03-23T19:51:42.973Z,15.26
2023-03-23T19:54:13.921Z,15.24
2023-03-23T19:56:50.762Z,15.21
2023-03-23T19:59:22.495Z,15.16
2023-03-23T20:01:55.045Z,15.13
2023-03-23T20:04:29.215Z,15.08
2023-03-23T20:07:03.273Z,15.03
2023-03-23T20:09:40.894Z,15.00
2023-03-23T20:12:19.168Z,14.98
2023-03-23T20:14:53.249Z,14.96
2023-03-23T20:17:29.569Z,14.97
2023-03-23T20:19:58.486Z,14.98
2023-03-23T20:22:35.588Z,14.97
2023-03-23T20:25:08.827Z,14.92
2023-03-23T20:27:49.434Z,14.86
2023-03-23T20:30:30.860Z,14.79
2023-03-23T20:33:15.032Z,14.74
2023-03-23T20:35:51.699Z,14.65
2023-03-23T20:38:35.922Z,14.60
2023-03-23T20:41:18.067Z,14.56
2023-03-23T20:44:03.421Z,14.53
2023-03-23T20:46:32.809Z,14.51
2023-03-23T20:49:02.261Z,14.52
2023-03-23T20:51:37.099Z,14.51
2023-03-23T20:54:07.262Z,14.48
2023-03-23T20:56:37.134Z,14.45
2023-03-23T20:59:08.392Z,14.42
2023-03-23T21:01:40.485Z,14.37
2023-03-23T21:04:17.613Z,14.33
2023-03-23T21:06:51.439Z,14.31
2023-03-23T21:09:28.177Z,14.30
2023-03-23T21:12:05.944Z,14.28
2023-03-23T21:14:44.439Z,14.28
2023-03-23T21:17:30.350Z,14.29
2023-03-23T21:20:12.471Z,14.26
2023-03-23T21:22:43.975Z,14.23
2023-03-23T21:25:34.870Z,14.18
2023-03-23T21:28:12.254Z,14.11
2023-03-23T21:30:50.232Z,14.08
2023-03-23T21:33:21.665Z,14.06
2023-03-23T21:36:00.567Z,14.06
2023-03-23T21:38:36.736Z,14.07
2023-03-23T21:41:16.238Z,14.08
2023-03-23T21:43:50.437Z,14.06
2023-03-23T21:46:24.378Z,14.04
2023-03-23T21:48:58.950Z,13.99
2023-03-23T21:51:54.912Z,13.96
2023-03-23T21:54:32.216Z,13.90
2023-03-23T21:57:22.953Z,13.87
2023-03-23T22:00:14.682Z,13.87
2023-03-23T22:02:45.912Z,13.88
2023-03-23T22:05:24.161Z,13.88
2023-03-23T22:08:01.073Z,13.86
2023-03-23T22:10:29.792Z,13.86
2023-03-23T22:13:01.354Z,13.84
2023-03-23T22:15:36.069Z,13.83
2023-03-23T22:18:18.647Z,13.78
2023-03-23T22:20:50.908Z,13.75
2023-03-23T22:23:26.422Z,13.74
2023-03-23T22:25:57.709Z,13.75
2023-03-23T22:28:35.121Z,13.76
2023-03-23T22:31:18.236Z,13.75
2023-03-23T22:33:48.348Z,13.74
2023-03-23T22:36:24.009Z,13.73
2023-03-23T22:38:55.931Z,13.72
2023-03-23T22:41:35.153Z,13.69
2023-03-23T22:44:17.828Z,13.64
2023-03-23T22:46:51.939Z,13.58
2023-03-23T22:49:21.090Z,13.54
2023-03-23T22:51:52.807Z,13.53
2023-03-23T22:54:26.586Z,13.51
2023-03-23T22:57:01.021Z,13.51
2023-03-23T22:59:38.251Z,13.48
2023-03-23T23:02:11.787Z,13.47
2023-03-23T23:04:43.014Z,13.43
2023-03-23T23:07:19.182Z,13.40
2023-03-23T23:09:51.756Z,13.37
2023-03-23T23:12:35.106Z,13.34
2023-03-23T23:15:16.536Z,13.30
2023-03-23T23:17:47.338Z,13.28
2023-03-23T23:20:21.048Z,13.27
2023-03-23T23:22:58.672Z,13.26
2023-03-23T23:25:36.895Z,13.24
2023-03-23T23:28:19.474Z,13.21
2023-03-23T23:30:49.369Z,13.15
2023-03-23T23:33:20.428Z,13.08
2023-03-23T23:35:49.650Z,13.01
2023-03-23T23:38:28.067Z,12.96
2023-03-23T23:41:09.493Z,12.90
2023-03-23T23:43:41.079Z,12.85
2023-03-23T23:46:14.923Z,12.84
2023-03-23T23:48:48.745Z,12.84
2023-03-23T23:51:17.528Z,12.80
2023-03-23T23:53:55.211Z,12.77
2023-03-23T23:56:35.892Z,12.67
2023-03-23T23:59:15.373Z,12.63
